createdAt,value
2019-05-13T00:00:59.154Z,73.64
2019-05-13T00:01:59.146Z,74.98
2019-05-13T00:02:59.124Z,76.56
2019-05-13T00:03:59.100Z,77.08
2019-05-13T00:04:59.137Z,77.22
2019-05-13T00:05:59.089Z,78.50
2019-05-13T00:06:59.074Z,77.98
2019-05-13T00:07:59.056Z,79.74
2019-05-13T00:08:59.049Z,80.67
2019-05-13T00:09:59.054Z,81.02
2019-05-13T00:10:59.053Z,81.47
2019-05-13T00:11:59.017Z,81.78
2019-05-13T00:12:59.026Z,81.09
2019-05-13T00:13:58.988Z,81.71
2019-05-13T00:14:59.034Z,81.71
2019-05-13T00:15:58.971Z,80.78
2019-05-13T00:16:58.978Z,80.12
2019-05-13T00:17:58.949Z,79.40
2019-05-13T00:18:58.950Z,79.16
2019-05-13T00:19:58.949Z,78.22
2019-05-13T00:20:58.917Z,78.43
2019-05-13T00:21:58.906Z,77.77
2019-05-13T00:22:58.954Z,77.47
2019-05-13T00:23:58.888Z,77.15
2019-05-13T00:24:58.888Z,77.70
2019-05-13T00:25:58.868Z,77.98
2019-05-13T00:26:58.847Z,77.05
2019-05-13T00:27:58.839Z,76.53
2019-05-13T00:28:58.859Z,76.53
2019-05-13T00:29:58.844Z,77.05
2019-05-13T00:30:58.804Z,76.84
2019-05-13T00:31:58.794Z,77.05
2019-05-13T00:32:58.781Z,77.26
2019-05-13T00:33:58.772Z,76.88
2019-05-13T00:34:58.801Z,77.15
2019-05-13T00:35:58.748Z,77.29
2019-05-13T00:37:08.927Z,77.60
2019-05-13T00:37:59.738Z,77.81
2019-05-13T00:38:58.725Z,78.02
2019-05-13T00:39:58.715Z,78.02
2019-05-13T00:40:58.712Z,78.02
2019-05-13T00:41:58.685Z,77.91
2019-05-13T00:42:58.698Z,78.36
2019-05-13T00:43:58.678Z,78.16
2019-05-13T00:44:58.661Z,78.99
2019-05-13T00:45:58.636Z,80.22
2019-05-13T00:46:58.641Z,80.16
2019-05-13T00:47:58.650Z,80.05
2019-05-13T00:48:58.605Z,80.26
2019-05-13T00:49:58.597Z,80.71
2019-05-13T00:50:58.584Z,80.30
2019-05-13T00:51:58.564Z,80.71
2019-05-13T00:52:58.575Z,80.71
2019-05-13T00:53:58.570Z,81.23
2019-05-13T00:54:59.460Z,81.58
2019-05-13T00:55:58.539Z,81.27
2019-05-13T00:56:58.530Z,82.20
2019-05-13T00:57:58.498Z,82.72
2019-05-13T00:58:58.543Z,82.82
2019-05-13T00:59:58.527Z,83.38
2019-05-13T01:00:58.479Z,83.38
2019-05-13T01:01:58.484Z,83.07
2019-05-13T01:02:58.466Z,83.28
2019-05-13T01:03:58.434Z,83.17
2019-05-13T01:04:58.473Z,83.69
2019-05-13T01:05:58.434Z,83.69
2019-05-13T01:06:58.408Z,83.90
2019-05-13T01:07:58.405Z,84.67
2019-05-13T01:08:58.375Z,84.31
2019-05-13T01:09:58.386Z,84.21
2019-05-13T01:10:58.381Z,84.42
2019-05-13T01:11:58.341Z,83.69
2019-05-13T01:12:58.383Z,84.21
2019-05-13T01:13:58.327Z,84.31
2019-05-13T01:14:58.310Z,84.77
2019-05-13T01:15:58.317Z,84.83
2019-05-13T01:16:58.317Z,84.88
2019-05-13T01:17:58.287Z,84.77
2019-05-13T01:18:58.265Z,84.98
2019-05-13T01:19:58.292Z,84.81
2019-05-13T01:20:58.247Z,84.91
2019-05-13T01:21:58.228Z,84.91
2019-05-13T01:22:58.277Z,85.19
2019-05-13T01:23:58.221Z,84.98
2019-05-13T01:24:58.204Z,84.73
2019-05-13T01:25:58.185Z,84.36
2019-05-13T01:26:58.206Z,83.59
2019-05-13T01:27:58.178Z,83.59
2019-05-13T01:28:58.176Z,83.17
2019-05-13T01:29:58.187Z,82.72
2019-05-13T01:30:58.135Z,81.99
2019-05-13T01:31:58.120Z,81.27
2019-05-13T01:32:58.109Z,80.96
2019-05-13T01:33:58.097Z,80.51
2019-05-13T01:34:58.103Z,80.61
2019-05-13T01:35:58.122Z,80.19
2019-05-13T01:36:58.068Z,80.19
2019-05-13T01:37:58.057Z,80.51
2019-05-13T01:38:58.049Z,80.61
2019-05-13T01:39:58.044Z,79.47
2019-05-13T01:40:58.038Z,79.99
2019-05-13T01:41:58.023Z,79.58
2019-05-13T01:42:57.992Z,78.92
2019-05-13T01:43:57.990Z,78.71
2019-05-13T01:44:57.981Z,78.71
2019-05-13T01:45:57.972Z,78.71
2019-05-13T01:46:57.998Z,78.71
2019-05-13T01:47:57.940Z,77.88
2019-05-13T01:48:57.954Z,78.50
2019-05-13T01:49:57.923Z,78.30
2019-05-13T01:50:57.905Z,78.16
2019-05-13T01:51:57.917Z,77.78
2019-05-13T01:52:57.916Z,77.43
2019-05-13T01:53:57.894Z,77.74
2019-05-13T01:54:57.862Z,77.53
2019-05-13T01:55:57.860Z,77.64
2019-05-13T01:56:57.870Z,78.09
2019-05-13T01:57:57.837Z,77.36
2019-05-13T01:58:57.855Z,77.57
2019-05-13T01:59:57.827Z,77.05
2019-05-13T02:00:57.793Z,77.98
2019-05-13T02:01:57.786Z,77.67
2019-05-13T02:02:57.775Z,78.09
2019-05-13T02:03:57.774Z,77.98
2019-05-13T02:04:57.776Z,78.09
2019-05-13T02:05:57.740Z,77.98
2019-05-13T02:06:57.723Z,77.98
2019-05-13T02:08:00.584Z,77.98
2019-05-13T02:08:57.721Z,78.44
2019-05-13T02:09:57.704Z,78.12
2019-05-13T02:10:57.711Z,78.96
2019-05-13T02:11:57.687Z,78.85
2019-05-13T02:12:57.656Z,78.78
2019-05-13T02:13:57.658Z,78.68
2019-05-13T02:14:57.638Z,78.89
2019-05-13T02:15:57.622Z,78.99
2019-05-13T02:16:57.638Z,78.99
2019-05-13T02:17:57.604Z,78.75
2019-05-13T02:18:57.594Z,78.89
2019-05-13T02:19:57.581Z,79.10
2019-05-13T02:20:57.573Z,78.99
2019-05-13T02:21:57.560Z,79.20
2019-05-13T02:22:57.582Z,78.99
2019-05-13T02:23:57.553Z,79.55
2019-05-13T02:24:57.527Z,79.44
2019-05-13T02:25:57.534Z,80.68
2019-05-13T02:26:57.536Z,80.37
2019-05-13T02:27:57.533Z,80.06
2019-05-13T02:28:57.498Z,80.37
2019-05-13T02:29:57.475Z,80.93
2019-05-13T02:30:57.468Z,80.73
2019-05-13T02:31:57.496Z,81.14
2019-05-13T02:32:57.433Z,81.87
2019-05-13T02:33:57.431Z,81.76
2019-05-13T02:34:57.430Z,81.66
2019-05-13T02:35:57.465Z,81.35
2019-05-13T02:36:57.390Z,82.11
2019-05-13T02:38:14.741Z,81.49
2019-05-13T02:38:58.378Z,81.38
2019-05-13T02:39:57.354Z,81.35
2019-05-13T02:40:57.512Z,81.70
2019-05-13T02:41:57.352Z,81.90
2019-05-13T02:42:57.342Z,82.01
2019-05-13T02:43:57.310Z,82.21
2019-05-13T02:44:57.296Z,82.42
2019-05-13T02:45:57.338Z,81.90
2019-05-13T02:46:57.325Z,82.04
2019-05-13T02:47:57.265Z,82.25
2019-05-13T02:48:57.253Z,82.77
2019-05-13T02:50:00.916Z,82.91
2019-05-13T02:50:58.244Z,83.37
2019-05-13T02:51:57.222Z,83.68
2019-05-13T02:52:57.266Z,83.89
2019-05-13T02:53:57.203Z,83.99
2019-05-13T02:54:57.190Z,83.92
2019-05-13T02:55:57.173Z,84.13
2019-05-13T02:56:57.192Z,84.86
2019-05-13T02:57:57.170Z,84.75
2019-05-13T02:58:57.191Z,84.75
2019-05-13T02:59:57.126Z,85.11
2019-05-13T03:00:57.174Z,85.38
2019-05-13T03:01:57.119Z,85.83
2019-05-13T03:02:57.093Z,85.52
2019-05-13T03:03:57.078Z,86.04
2019-05-13T03:04:57.090Z,86.57
2019-05-13T03:05:57.082Z,86.98
2019-05-13T03:06:57.074Z,87.23
2019-05-13T03:07:57.040Z,87.02
2019-05-13T03:08:57.039Z,87.23
2019-05-13T03:09:57.027Z,87.16
2019-05-13T03:10:57.034Z,87.06
2019-05-13T03:11:56.989Z,87.33
2019-05-13T03:12:57.015Z,87.65
2019-05-13T03:13:56.971Z,88.06
2019-05-13T03:14:56.988Z,88.37
2019-05-13T03:15:56.962Z,88.37
2019-05-13T03:16:56.969Z,88.27
2019-05-13T03:17:56.946Z,88.58
2019-05-13T03:18:56.933Z,88.68
2019-05-13T03:19:56.933Z,88.48
2019-05-13T03:20:56.911Z,88.17
2019-05-13T03:21:56.897Z,88.17
2019-05-13T03:22:56.917Z,88.73
2019-05-13T03:23:56.897Z,88.17
2019-05-13T03:24:56.897Z,88.52
2019-05-13T03:25:56.848Z,88.42
2019-05-13T03:26:56.834Z,89.35
2019-05-13T03:27:56.841Z,89.25
2019-05-13T03:28:56.845Z,89.35
2019-05-13T03:29:56.819Z,89.35
2019-05-13T03:30:57.274Z,89.10
2019-05-13T03:31:57.046Z,89.87
2019-05-13T03:33:02.188Z,89.73
2019-05-13T03:33:57.825Z,89.73
2019-05-13T03:34:57.275Z,89.52
2019-05-13T03:35:56.857Z,89.62
2019-05-13T03:36:58.078Z,89.20
2019-05-13T03:37:56.734Z,89.20
2019-05-13T03:39:05.561Z,88.31
2019-05-13T03:39:57.718Z,88.48
2019-05-13T03:40:56.687Z,88.20
2019-05-13T03:41:56.664Z,87.58
2019-05-13T03:42:56.655Z,87.99
2019-05-13T03:43:56.655Z,87.83
2019-05-13T03:44:56.648Z,87.89
2019-05-13T03:45:56.654Z,87.41
2019-05-13T03:46:56.620Z,88.31
2019-05-13T03:47:56.677Z,88.83
2019-05-13T03:48:56.619Z,88.24
2019-05-13T03:49:56.597Z,88.66
2019-05-13T03:50:56.584Z,88.35
2019-05-13T03:51:56.595Z,88.24
2019-05-13T03:52:56.591Z,87.83
2019-05-13T03:53:56.540Z,87.62
2019-05-13T03:54:56.523Z,87.87
2019-05-13T03:55:56.518Z,88.49
2019-05-13T03:56:56.498Z,88.60
2019-05-13T03:57:56.556Z,88.91
2019-05-13T03:58:56.480Z,89.50
2019-05-13T03:59:56.470Z,88.39
2019-05-13T04:00:56.465Z,88.70
2019-05-13T04:01:56.444Z,88.08
2019-05-13T04:02:56.438Z,88.60
2019-05-13T04:03:56.462Z,87.97
2019-05-13T04:04:59.020Z,88.29
2019-05-13T04:05:57.409Z,89.54
2019-05-13T04:06:56.395Z,89.54
2019-05-13T04:07:56.402Z,89.50
2019-05-13T04:09:15.685Z,89.54
2019-05-13T04:09:57.373Z,89.64
2019-05-13T04:10:56.344Z,89.85
2019-05-13T04:11:56.362Z,89.75
2019-05-13T04:12:56.345Z,89.75
2019-05-13T04:13:56.342Z,89.54
2019-05-13T04:14:56.306Z,89.95
2019-05-13T04:15:56.340Z,89.64
2019-05-13T04:16:56.310Z,89.81
2019-05-13T04:17:56.286Z,89.91
2019-05-13T04:18:56.276Z,89.91
2019-05-13T04:19:56.246Z,90.44
2019-05-13T04:20:56.926Z,89.91
2019-05-13T04:21:56.263Z,89.70
2019-05-13T04:22:56.243Z,89.66
2019-05-13T04:23:56.199Z,89.87
2019-05-13T04:24:56.216Z,89.56
2019-05-13T04:25:56.182Z,89.62
2019-05-13T04:26:56.179Z,89.62
2019-05-13T04:27:56.183Z,89.62
2019-05-13T04:28:56.164Z,89.52
2019-05-13T04:29:56.144Z,89.73
2019-05-13T04:30:56.159Z,89.58
2019-05-13T04:31:56.130Z,89.69
2019-05-13T04:32:56.114Z,89.75
2019-05-13T04:33:56.127Z,90.37
2019-05-13T04:34:56.123Z,90.26
2019-05-13T04:35:56.084Z,90.33
2019-05-13T04:36:56.064Z,90.50
2019-05-13T04:37:56.059Z,90.83
2019-05-13T04:38:56.064Z,90.41
2019-05-13T04:39:56.698Z,90.27
2019-05-13T04:40:56.030Z,89.46
2019-05-13T04:41:56.045Z,89.00
2019-05-13T04:42:56.002Z,87.78
2019-05-13T04:43:55.995Z,86.05
2019-05-13T04:44:55.972Z,84.45
2019-05-13T04:45:55.987Z,83.59
2019-05-13T04:46:55.951Z,79.45
2019-05-13T04:47:55.943Z,78.04
2019-05-13T04:48:55.926Z,74.02
2019-05-13T04:49:55.925Z,70.86
2019-05-13T04:50:55.924Z,68.29
2019-05-13T04:51:55.920Z,66.82
2019-05-13T04:52:55.884Z,67.40
2019-05-13T04:53:57.273Z,68.56
2019-05-13T04:54:55.869Z,68.63
2019-05-13T04:55:55.851Z,66.76
2019-05-13T04:56:55.832Z,64.10
2019-05-13T04:57:55.845Z,61.35
2019-05-13T04:58:55.820Z,59.55
2019-05-13T04:59:55.804Z,60.06
2019-05-13T05:01:02.726Z,57.89
2019-05-13T05:01:59.379Z,57.89
2019-05-13T05:02:56.786Z,57.76
2019-05-13T05:03:55.777Z,58.45
2019-05-13T05:04:55.761Z,54.33
2019-05-13T05:05:55.774Z,54.08
2019-05-13T05:06:55.780Z,54.90
2019-05-13T05:07:55.721Z,54.67
2019-05-13T05:08:55.726Z,54.74
2019-05-13T05:10:16.778Z,54.54
2019-05-13T05:10:56.686Z,50.82
2019-05-13T05:11:55.705Z,51.00
2019-05-13T05:12:55.671Z,51.26
2019-05-13T05:13:56.683Z,49.25
2019-05-13T05:14:55.667Z,50.37
2019-05-13T05:15:55.635Z,49.60
2019-05-13T05:16:55.619Z,52.96
2019-05-13T05:17:55.604Z,54.46
2019-05-13T05:18:55.595Z,55.84
2019-05-13T05:19:55.585Z,55.99
2019-05-13T05:20:55.595Z,55.23
2019-05-13T05:21:55.719Z,53.85
2019-05-13T05:22:55.570Z,52.55
2019-05-13T05:23:55.537Z,50.49
2019-05-13T05:24:55.523Z,50.37
2019-05-13T05:25:55.513Z,50.06
2019-05-13T05:26:55.526Z,49.45
2019-05-13T05:27:58.196Z,48.49
2019-05-13T05:28:55.482Z,49.76
2019-05-13T05:29:55.468Z,50.19
2019-05-13T05:30:55.452Z,51.51
2019-05-13T05:31:55.473Z,50.98
2019-05-13T05:32:55.456Z,50.62
2019-05-13T05:33:55.433Z,52.88
2019-05-13T05:34:55.421Z,54.21
2019-05-13T05:35:55.398Z,53.42
2019-05-13T05:36:55.402Z,53.92
2019-05-13T05:37:55.384Z,51.94
2019-05-13T05:38:55.388Z,51.94
2019-05-13T05:39:55.350Z,50.64
2019-05-13T05:40:55.341Z,52.15
2019-05-13T05:41:55.331Z,51.94
2019-05-13T05:42:55.318Z,51.64
2019-05-13T05:43:55.320Z,51.97
2019-05-13T05:44:55.320Z,53.77
2019-05-13T05:45:55.294Z,54.39
2019-05-13T05:46:55.281Z,55.18
2019-05-13T05:47:55.293Z,57.48
2019-05-13T05:48:55.249Z,57.45
2019-05-13T05:49:55.238Z,57.73
2019-05-13T05:50:55.255Z,57.60
2019-05-13T05:51:55.224Z,56.86
2019-05-13T05:52:55.204Z,56.15
2019-05-13T05:53:55.194Z,56.89
2019-05-13T05:54:55.190Z,55.82
2019-05-13T05:55:55.180Z,54.94
2019-05-13T05:56:55.180Z,54.28
2019-05-13T05:57:55.147Z,51.89
2019-05-13T05:58:55.141Z,51.61
2019-05-13T05:59:55.128Z,53.06
2019-05-13T06:00:55.130Z,51.89
2019-05-13T06:01:55.104Z,52.62
2019-05-13T06:02:55.113Z,52.37
2019-05-13T06:03:55.082Z,54.23
2019-05-13T06:04:55.071Z,54.82
2019-05-13T06:05:55.058Z,54.69
2019-05-13T06:06:55.077Z,56.18
2019-05-13T06:07:55.034Z,59.07
2019-05-13T06:08:55.047Z,55.84
2019-05-13T06:09:55.012Z,57.86
2019-05-13T06:10:55.963Z,55.05
2019-05-13T06:11:54.992Z,52.65
2019-05-13T06:12:55.007Z,52.40
2019-05-13T06:13:54.967Z,51.28
2019-05-13T06:14:54.982Z,52.53
2019-05-13T06:15:54.969Z,52.55
2019-05-13T06:16:54.968Z,50.29
2019-05-13T06:17:54.927Z,49.60
2019-05-13T06:18:54.925Z,49.58
2019-05-13T06:19:54.907Z,49.58
2019-05-13T06:20:54.920Z,50.95
2019-05-13T06:21:54.883Z,50.89
2019-05-13T06:22:54.879Z,50.69
2019-05-13T06:23:54.862Z,51.91
2019-05-13T06:24:54.862Z,52.29
2019-05-13T06:25:54.842Z,53.59
2019-05-13T06:26:54.851Z,52.96
2019-05-13T06:27:54.820Z,50.52
2019-05-13T06:28:54.813Z,50.87
2019-05-13T06:29:54.800Z,50.65
2019-05-13T06:30:54.824Z,47.98
2019-05-13T06:31:54.782Z,47.88
2019-05-13T06:32:54.795Z,48.55
2019-05-13T06:33:54.761Z,47.75
2019-05-13T06:34:54.740Z,49.15
2019-05-13T06:35:54.754Z,49.04
2019-05-13T06:36:54.716Z,48.25
2019-05-13T06:37:54.703Z,49.17
2019-05-13T06:38:54.733Z,48.76
2019-05-13T06:39:54.684Z,49.58
2019-05-13T06:41:03.386Z,48.74
2019-05-13T06:41:55.680Z,48.46
2019-05-13T06:42:54.649Z,48.94
2019-05-13T06:43:54.661Z,47.90
2019-05-13T06:44:54.658Z,50.67
2019-05-13T06:45:54.614Z,47.75
2019-05-13T06:46:54.634Z,47.05
2019-05-13T06:47:54.591Z,46.78
2019-05-13T06:48:54.579Z,48.11
2019-05-13T06:49:54.567Z,47.96
2019-05-13T06:50:54.579Z,46.82
2019-05-13T06:51:54.566Z,47.75
2019-05-13T06:52:54.576Z,47.43
2019-05-13T06:53:54.554Z,47.25
2019-05-13T06:54:54.512Z,47.88
2019-05-13T06:55:54.503Z,49.08
2019-05-13T06:56:54.515Z,47.37
2019-05-13T06:57:54.501Z,48.08
2019-05-13T06:58:54.472Z,48.67
2019-05-13T06:59:54.457Z,46.74
2019-05-13T07:00:58.101Z,47.94
2019-05-13T07:01:54.439Z,47.86
2019-05-13T07:02:54.453Z,48.90
2019-05-13T07:03:54.416Z,48.74
2019-05-13T07:04:54.405Z,47.95
2019-05-13T07:05:54.397Z,49.17
2019-05-13T07:07:08.945Z,49.09
2019-05-13T07:07:55.419Z,49.37
2019-05-13T07:08:54.356Z,47.29
2019-05-13T07:09:54.350Z,48.13
2019-05-13T07:10:54.336Z,47.80
2019-05-13T07:11:56.905Z,46.84
2019-05-13T07:12:54.337Z,44.99
2019-05-13T07:13:54.352Z,46.41
2019-05-13T07:14:54.306Z,44.99
2019-05-13T07:15:54.287Z,44.67
2019-05-13T07:16:54.272Z,46.29
2019-05-13T07:17:54.265Z,45.67
2019-05-13T07:18:54.253Z,47.87
2019-05-13T07:19:54.256Z,48.81
2019-05-13T07:20:54.230Z,50.34
2019-05-13T07:21:54.223Z,50.31
2019-05-13T07:22:54.210Z,48.66
2019-05-13T07:23:55.001Z,48.72
2019-05-13T07:24:54.183Z,48.00
2019-05-13T07:25:54.190Z,50.59
2019-05-13T07:26:54.166Z,47.52
2019-05-13T07:27:54.156Z,47.74
2019-05-13T07:28:54.139Z,46.89
2019-05-13T07:29:55.746Z,48.19
2019-05-13T07:30:54.121Z,47.55
2019-05-13T07:31:54.128Z,45.76
2019-05-13T07:32:54.095Z,46.89
2019-05-13T07:33:54.083Z,46.20
2019-05-13T07:34:54.085Z,49.27
2019-05-13T07:35:58.299Z,49.25
2019-05-13T07:36:54.052Z,48.35
2019-05-13T07:37:54.062Z,49.45
2019-05-13T07:38:54.032Z,46.09
2019-05-13T07:39:54.025Z,46.32
2019-05-13T07:40:54.015Z,47.30
2019-05-13T07:41:53.998Z,48.91
2019-05-13T07:42:53.991Z,48.89
2019-05-13T07:43:54.002Z,46.28
2019-05-13T07:44:53.973Z,46.62
2019-05-13T07:45:53.962Z,46.19
2019-05-13T07:46:53.942Z,45.17
2019-05-13T07:47:53.933Z,42.33
2019-05-13T07:48:53.925Z,43.73
2019-05-13T07:49:53.927Z,44.44
2019-05-13T07:51:00.363Z,43.30
2019-05-13T07:51:54.981Z,43.30
2019-05-13T07:52:53.879Z,42.43
2019-05-13T07:53:53.870Z,41.32
2019-05-13T07:54:53.856Z,41.18
2019-05-13T07:55:53.867Z,38.14
2019-05-13T07:56:53.837Z,38.85
2019-05-13T07:57:53.832Z,40.15
2019-05-13T07:58:53.818Z,38.35
2019-05-13T07:59:53.803Z,40.86
2019-05-13T08:00:53.797Z,42.84
2019-05-13T08:01:53.809Z,41.81
2019-05-13T08:02:53.775Z,42.23
2019-05-13T08:03:53.759Z,44.66
2019-05-13T08:04:53.746Z,45.67
2019-05-13T08:05:53.737Z,42.80
2019-05-13T08:06:53.729Z,44.34
2019-05-13T08:07:53.746Z,44.54
2019-05-13T08:08:53.724Z,43.08
2019-05-13T08:09:56.096Z,41.87
2019-05-13T08:10:54.681Z,38.50
2019-05-13T08:12:05.163Z,31.87
2019-05-13T08:12:54.684Z,33.70
2019-05-13T08:13:53.655Z,33.72
2019-05-13T08:14:53.639Z,33.31
2019-05-13T08:15:54.734Z,32.18
2019-05-13T08:16:53.623Z,35.58
2019-05-13T08:17:53.630Z,40.46
2019-05-13T08:18:53.618Z,43.89
2019-05-13T08:19:53.588Z,42.58
2019-05-13T08:20:53.588Z,42.64
2019-05-13T08:21:53.565Z,44.35
2019-05-13T08:22:53.559Z,43.91
2019-05-13T08:23:53.543Z,43.66
2019-05-13T08:24:54.444Z,38.40
2019-05-13T08:25:53.524Z,39.83
2019-05-13T08:26:53.586Z,42.72
2019-05-13T08:27:53.503Z,39.19
2019-05-13T08:29:01.252Z,40.05
2019-05-13T08:29:54.506Z,39.01
2019-05-13T08:30:53.532Z,40.60
2019-05-13T08:31:53.468Z,34.34
2019-05-13T08:32:53.464Z,32.83
2019-05-13T08:33:53.455Z,32.28
2019-05-13T08:35:01.695Z,28.37
2019-05-13T08:35:58.691Z,27.91
2019-05-13T08:36:53.409Z,28.03
2019-05-13T08:37:53.398Z,27.53
2019-05-13T08:38:53.388Z,28.54
2019-05-13T08:39:53.374Z,28.88
2019-05-13T08:40:53.367Z,28.50
2019-05-13T08:41:53.391Z,29.83
2019-05-13T08:42:53.349Z,30.21
2019-05-13T08:43:53.383Z,31.04
2019-05-13T08:44:53.337Z,29.74
2019-05-13T08:45:55.635Z,27.11
2019-05-13T08:46:53.302Z,28.91
2019-05-13T08:47:53.356Z,26.32
2019-05-13T08:48:53.308Z,27.34
2019-05-13T08:49:53.292Z,27.75
2019-05-13T08:50:53.305Z,27.33
2019-05-13T08:51:53.252Z,28.22
2019-05-13T08:52:53.269Z,26.13
2019-05-13T08:53:53.319Z,28.31
2019-05-13T08:54:53.227Z,28.62
2019-05-13T08:55:53.224Z,28.16
2019-05-13T08:56:53.199Z,28.12
2019-05-13T08:57:55.272Z,27.28
2019-05-13T08:58:53.199Z,29.68
2019-05-13T08:59:53.200Z,26.26
2019-05-13T09:00:53.382Z,26.10
2019-05-13T09:01:53.147Z,26.02
2019-05-13T09:02:53.137Z,26.32
2019-05-13T09:03:53.126Z,25.38
2019-05-13T09:04:53.125Z,25.37
2019-05-13T09:05:53.169Z,23.17
2019-05-13T09:06:53.104Z,23.60
2019-05-13T09:07:53.089Z,23.69
2019-05-13T09:08:54.262Z,22.90
2019-05-13T09:09:53.068Z,25.69
2019-05-13T09:10:56.547Z,25.85
2019-05-13T09:11:53.069Z,25.33
2019-05-13T09:12:53.046Z,23.06
2019-05-13T09:13:53.026Z,26.47
2019-05-13T09:14:53.015Z,25.34
2019-05-13T09:15:53.019Z,24.84
2019-05-13T09:16:53.007Z,22.61
2019-05-13T09:17:53.022Z,25.63
2019-05-13T09:18:52.975Z,21.31
2019-05-13T09:19:53.022Z,22.94
2019-05-13T09:20:52.956Z,23.34
2019-05-13T09:21:52.945Z,24.77
2019-05-13T09:22:52.939Z,25.18
2019-05-13T09:23:52.953Z,25.68
2019-05-13T09:24:53.191Z,23.97
2019-05-13T09:25:52.905Z,24.05
2019-05-13T09:26:52.916Z,24.59
2019-05-13T09:27:52.886Z,26.32
2019-05-13T09:28:52.892Z,26.29
2019-05-13T09:29:52.906Z,25.70
2019-05-13T09:30:53.380Z,25.42
2019-05-13T09:31:52.843Z,23.80
2019-05-13T09:32:52.834Z,25.31
2019-05-13T09:33:52.828Z,25.41
2019-05-13T09:34:52.827Z,26.53
2019-05-13T09:35:53.718Z,28.02
2019-05-13T09:36:52.796Z,26.18
2019-05-13T09:37:52.817Z,26.26
2019-05-13T09:38:52.777Z,25.14
2019-05-13T09:39:52.773Z,24.84
2019-05-13T09:40:53.320Z,26.25
2019-05-13T09:41:52.774Z,25.45
2019-05-13T09:42:55.224Z,25.02
2019-05-13T09:43:52.732Z,27.24
2019-05-13T09:44:52.767Z,24.13
2019-05-13T09:45:52.747Z,24.12
2019-05-13T09:46:52.692Z,24.65
2019-05-13T09:47:52.737Z,26.59
2019-05-13T09:48:52.671Z,23.83
2019-05-13T09:49:54.553Z,23.97
2019-05-13T09:50:52.654Z,25.57
2019-05-13T09:51:52.643Z,24.15
2019-05-13T09:52:52.655Z,24.36
2019-05-13T09:53:52.647Z,24.15
2019-05-13T09:54:52.612Z,23.25
2019-05-13T09:55:52.658Z,24.75
2019-05-13T09:56:52.595Z,25.94
2019-05-13T09:57:52.656Z,26.01
2019-05-13T09:58:52.579Z,31.51
2019-05-13T09:59:52.602Z,24.96
2019-05-13T10:00:53.294Z,24.98
2019-05-13T10:01:52.555Z,24.58
2019-05-13T10:02:52.543Z,24.00
2019-05-13T10:03:57.189Z,26.21
2019-05-13T10:04:53.547Z,25.18
2019-05-13T10:05:52.517Z,23.80
2019-05-13T10:06:52.506Z,24.71
2019-05-13T10:07:52.488Z,24.20
2019-05-13T10:08:52.824Z,23.41
2019-05-13T10:09:52.474Z,26.61
2019-05-13T10:10:52.975Z,24.10
2019-05-13T10:11:52.457Z,26.10
2019-05-13T10:13:07.931Z,23.79
2019-05-13T10:13:53.440Z,24.42
2019-05-13T10:14:52.431Z,29.82
2019-05-13T10:15:52.414Z,23.77
2019-05-13T10:16:52.430Z,24.55
2019-05-13T10:17:52.778Z,27.16
2019-05-13T10:18:52.822Z,26.37
2019-05-13T10:19:52.403Z,25.05
2019-05-13T10:20:57.228Z,24.99
2019-05-13T10:21:53.374Z,25.07
2019-05-13T10:22:52.902Z,26.86
2019-05-13T10:23:52.354Z,27.16
2019-05-13T10:24:52.329Z,25.38
2019-05-13T10:25:52.326Z,25.09
2019-05-13T10:26:52.312Z,22.21
2019-05-13T10:27:52.316Z,24.74
2019-05-13T10:28:52.301Z,23.82
2019-05-13T10:29:52.309Z,22.30
2019-05-13T10:30:53.041Z,24.12
2019-05-13T10:31:52.275Z,23.11
2019-05-13T10:32:52.778Z,23.42
2019-05-13T10:33:52.278Z,24.00
2019-05-13T10:34:52.251Z,23.30
2019-05-13T10:35:52.687Z,22.83
2019-05-13T10:36:52.238Z,23.94
2019-05-13T10:37:52.431Z,25.38
2019-05-13T10:38:52.639Z,24.27
2019-05-13T10:39:52.243Z,26.18
2019-05-13T10:40:52.272Z,23.77
2019-05-13T10:41:52.553Z,24.19
2019-05-13T10:42:52.488Z,23.47
2019-05-13T10:43:52.340Z,25.29
2019-05-13T10:44:52.498Z,23.36
2019-05-13T10:45:52.580Z,22.98
2019-05-13T10:46:52.390Z,22.58
2019-05-13T10:47:52.116Z,23.49
2019-05-13T10:48:52.807Z,24.38
2019-05-13T10:49:52.500Z,26.29
2019-05-13T10:50:53.118Z,23.86
2019-05-13T10:51:52.759Z,25.18
2019-05-13T10:52:52.324Z,24.77
2019-05-13T10:53:53.578Z,24.63
2019-05-13T10:54:53.041Z,23.93
2019-05-13T10:55:52.407Z,24.03
2019-05-13T10:56:54.168Z,24.46
2019-05-13T10:57:52.034Z,25.65
2019-05-13T10:58:53.464Z,27.16
2019-05-13T10:59:52.917Z,23.83
2019-05-13T11:00:51.988Z,24.05
2019-05-13T11:01:52.034Z,23.74
2019-05-13T11:02:52.000Z,24.54
2019-05-13T11:03:52.578Z,24.38
2019-05-13T11:04:52.731Z,25.48
2019-05-13T11:05:52.775Z,24.65
2019-05-13T11:06:52.635Z,23.26
2019-05-13T11:07:51.912Z,23.96
2019-05-13T11:08:53.102Z,25.68
2019-05-13T11:09:52.932Z,27.37
2019-05-13T11:10:53.137Z,26.28
2019-05-13T11:11:52.867Z,26.27
2019-05-13T11:12:52.151Z,27.06
2019-05-13T11:13:58.850Z,25.35
2019-05-13T11:14:55.156Z,24.55
2019-05-13T11:15:57.487Z,24.28
2019-05-13T11:16:52.823Z,25.32
2019-05-13T11:17:52.011Z,26.72
2019-05-13T11:18:52.141Z,25.38
2019-05-13T11:19:51.800Z,25.67
2019-05-13T11:20:51.834Z,26.26
2019-05-13T11:21:51.781Z,25.15
2019-05-13T11:22:52.228Z,25.69
2019-05-13T11:23:52.329Z,27.30
2019-05-13T11:24:51.987Z,26.70
2019-05-13T11:25:52.426Z,27.39
2019-05-13T11:26:52.981Z,25.67
2019-05-13T11:27:52.461Z,25.48
2019-05-13T11:28:52.273Z,27.17
2019-05-13T11:29:52.456Z,27.36
2019-05-13T11:30:52.206Z,26.86
2019-05-13T11:31:52.691Z,25.05
2019-05-13T11:32:51.863Z,26.47
2019-05-13T11:33:52.206Z,26.37
2019-05-13T11:34:52.921Z,28.17
2019-05-13T11:35:52.512Z,26.77
2019-05-13T11:36:53.120Z,25.89
2019-05-13T11:37:52.170Z,24.77
2019-05-13T11:38:53.180Z,23.99
2019-05-13T11:39:51.819Z,25.50
2019-05-13T11:40:52.319Z,24.79
2019-05-13T11:41:51.626Z,27.00
2019-05-13T11:42:52.611Z,27.20
2019-05-13T11:44:09.275Z,27.63
2019-05-13T11:44:53.051Z,27.63
2019-05-13T11:45:51.808Z,29.40
2019-05-13T11:46:53.027Z,29.85
2019-05-13T11:47:52.223Z,29.76
2019-05-13T11:48:52.031Z,31.58
2019-05-13T11:49:52.403Z,31.40
2019-05-13T11:50:54.105Z,31.21
2019-05-13T11:51:52.044Z,30.40
2019-05-13T11:52:52.438Z,30.12
2019-05-13T11:53:52.433Z,32.17
2019-05-13T11:54:53.863Z,32.25
2019-05-13T11:55:52.300Z,31.13
2019-05-13T11:57:53.352Z,30.05
2019-05-13T11:58:53.293Z,30.15
2019-05-13T11:59:52.664Z,31.35
2019-05-13T12:00:53.091Z,30.85
2019-05-13T12:01:53.823Z,32.06
2019-05-13T12:02:54.605Z,30.64
2019-05-13T12:04:53.536Z,30.85
2019-05-13T12:05:53.695Z,30.83
2019-05-13T12:06:54.579Z,31.24
2019-05-13T12:07:53.522Z,31.64
2019-05-13T12:08:55.000Z,31.44
2019-05-13T12:09:51.862Z,31.25
2019-05-13T12:10:52.010Z,30.44
2019-05-13T12:11:51.263Z,30.44
2019-05-13T12:12:51.236Z,30.96
2019-05-13T12:13:52.910Z,32.87
2019-05-13T12:15:20.487Z,33.48
2019-05-13T12:15:54.325Z,30.85
2019-05-13T12:16:51.189Z,31.15
2019-05-13T12:17:52.914Z,30.74
2019-05-13T12:18:52.504Z,30.04
2019-05-13T12:19:54.212Z,30.35
2019-05-13T12:20:54.104Z,29.74
2019-05-13T12:21:54.070Z,30.16
2019-05-13T12:22:52.015Z,31.18
2019-05-13T12:23:52.799Z,34.00
2019-05-13T12:24:51.570Z,31.57
2019-05-13T12:26:53.279Z,29.54
2019-05-13T12:27:51.963Z,31.86
2019-05-13T12:28:53.698Z,29.52
2019-05-13T12:29:52.833Z,31.45
2019-05-13T12:30:53.001Z,33.89
2019-05-13T12:31:52.605Z,29.93
2019-05-13T12:32:51.879Z,30.13
2019-05-13T12:33:52.309Z,30.04
2019-05-13T12:34:52.605Z,29.85
2019-05-13T12:35:52.913Z,29.74
2019-05-13T12:36:50.960Z,32.28
2019-05-13T12:37:53.382Z,30.64
2019-05-13T12:38:53.462Z,28.61
2019-05-13T12:39:53.196Z,29.83
2019-05-13T12:40:52.847Z,29.71
2019-05-13T12:41:53.461Z,28.80
2019-05-13T12:42:53.969Z,27.39
2019-05-13T12:43:53.859Z,29.22
2019-05-13T12:45:04.029Z,28.11
2019-05-13T12:45:53.437Z,27.70
2019-05-13T12:46:54.086Z,29.03
2019-05-13T12:47:53.005Z,28.92
2019-05-13T12:48:50.826Z,29.73
2019-05-13T12:49:50.814Z,29.92
2019-05-13T12:50:53.896Z,28.09
2019-05-13T12:51:51.686Z,27.58
2019-05-13T12:52:51.462Z,28.19
2019-05-13T12:53:52.810Z,26.58
2019-05-13T12:54:52.835Z,26.50
2019-05-13T12:55:55.761Z,26.71